| time (UTC) | temp C | wind direction | speed KPH | gust KPH | rain 1hr cm | rain 24hr cm | rain mn cm | humidity % | barometer mb |
| 20260506224201 | 22 | 7 | 0.0 | 0.0 | 0.00 | 0.23 | 0.23 | 82 | 1011.6 |
| 20260506223159 | 22 | 7 | 0.0 | 0.0 | 0.00 | 0.23 | 0.23 | 81 | 1011.7 |
| 20260506222159 | 22 | 7 | 0.0 | 0.0 | 0.00 | 0.23 | 0.23 | 81 | 1012.1 |
| 20260506221156 | 22 | 7 | 0.0 | 1.6 | 0.00 | 0.23 | 0.23 | 80 | 1011.8 |
| 20260506220154 | 22 | 15 | 0.0 | 3.2 | 0.00 | 0.23 | 0.23 | 79 | 1011.9 |
| 20260506215157 | 22 | 3 | 0.0 | 3.2 | 0.00 | 0.23 | 0.23 | 79 | 1011.9 |
| 20260506214148 | 22 | 0 | 0.0 | 4.8 | 0.00 | 0.23 | 0.23 | 79 | 1011.8 |
| 20260506213149 | 22 | 46 | 1.6 | 6.4 | 0.00 | 0.23 | 0.23 | 79 | 1011.7 |
| 20260506212148 | 22 | 343 | 0.0 | 3.2 | 0.00 | 0.23 | 0.23 | 79 | 1011.6 |
| 20260506211148 | 22 | 319 | 0.0 | 1.6 | 0.00 | 0.23 | 0.23 | 79 | 1011.5 |
| 20260506210151 | 22 | 335 | 0.0 | 1.6 | 0.00 | 0.23 | 0.23 | 80 | 1011.7 |
| 20260506205626 | 22 | 323 | 1.6 | 6.4 | 0.00 | 0.23 | 0.23 | 79 | 1011.7 |
| 20260506204148 | 22 | 328 | 1.6 | 9.7 | 0.00 | 0.23 | 0.23 | 79 | 1011.9 |
| 20260506203149 | 22 | 330 | 1.6 | 9.7 | 0.00 | 0.23 | 0.23 | 79 | 1012.2 |
| 20260506202625 | 22 | 267 | 1.6 | 4.8 | 0.00 | 0.23 | 0.23 | 79 | 1012.3 |
| 20260506201143 | 22 | 326 | 0.0 | 6.4 | 0.00 | 0.23 | 0.23 | 80 | 1012.2 |
| 20260506201100 | 21 | 41 | 0.0 | 12.9 | 0.00 | 0.23 | 0.23 | 81 | 1012.4 |
| 20260506195142 | 21 | 305 | 0.0 | 4.8 | 0.00 | 0.23 | 0.23 | 81 | 1012.4 |
| 20260506194142 | 21 | 84 | 1.6 | 8.0 | 0.00 | 0.23 | 0.23 | 82 | 1012.4 |
| 20260506193142 | 21 | 335 | 0.0 | 4.8 | 0.00 | 0.23 | 0.23 | 82 | 1012.2 |
| 20260506192142 | 21 | 302 | 0.0 | 1.6 | 0.00 | 0.23 | 0.23 | 83 | 1012.3 |
| 20260506191145 | 20 | 139 | 0.0 | 8.0 | 0.00 | 0.23 | 0.23 | 84 | 1012.5 |
| 20260506190143 | 20 | 46 | 0.0 | 9.7 | 0.00 | 0.23 | 0.23 | 85 | 1012.5 |
| 20260506185142 | 20 | 235 | 0.0 | 8.0 | 0.00 | 0.23 | 0.23 | 86 | 1012.5 |
| 20260506184136 | 20 | 347 | 0.0 | 3.2 | 0.00 | 0.23 | 0.23 | 88 | 1012.8 |
| 20260506183136 | 19 | 259 | 0.0 | 4.8 | 0.00 | 0.23 | 0.23 | 88 | 1012.5 |
| 20260506182610 | 19 | 311 | 0.0 | 6.4 | 0.00 | 0.23 | 0.23 | 88 | 1012.7 |
| 20260506181139 | 19 | 245 | 0.0 | 4.8 | 0.00 | 0.23 | 0.23 | 88 | 1012.3 |
| 20260506180138 | 19 | 178 | 0.0 | 4.8 | 0.03 | 0.23 | 0.23 | 89 | 1012.5 |
| 20260506175136 | 19 | 94 | 0.0 | 4.8 | 0.05 | 0.23 | 0.23 | 91 | 1013.2 |
| 20260506174136 | 18 | 122 | 0.0 | 3.2 | 0.23 | 0.23 | 0.23 | 91 | 1013.4 |
| 20260506173138 | 18 | 98 | 0.0 | 3.2 | 0.23 | 0.23 | 0.23 | 90 | 1013.8 |
| 20260506172138 | 18 | 37 | 0.0 | 1.6 | 0.23 | 0.23 | 0.23 | 91 | 1014.6 |
| 20260506171130 | 18 | 103 | 0.0 | 1.6 | 0.23 | 0.23 | 0.23 | 89 | 1014.3 |
| 20260506170129 | 18 | 77 | 0.0 | 1.6 | 0.20 | 0.20 | 0.20 | 86 | 1015.0 |
| 20260506165132 | 20 | 293 | 0.0 | 6.4 | 0.18 | 0.18 | 0.20 | 81 | 1014.7 |
| 20260506164131 | 21 | 275 | 0.0 | 4.8 | 0.00 | 0.00 | 0.00 | 72 | 1015.1 |
| 20260506163130 | 21 | 291 | 0.0 | 4.8 | 0.00 | 0.00 | 0.00 | 70 | 1014.4 |
| 20260506162129 | 22 | 255 | 0.0 | 4.8 | 0.00 | 0.00 | 0.00 | 68 | 1014.2 |
| 20260506161130 | 21 | 314 | 0.0 | 1.6 | 0.00 | 0.00 | 0.00 | 68 | 1014.0 |
| 20260506160130 | 21 | 278 | 0.0 | 1.6 | 0.00 | 0.00 | 0.00 | 70 | 1013.7 |
| 20260506155131 | 21 | 340 | 1.6 | 8.0 | 0.00 | 0.00 | 0.00 | 69 | 1013.7 |
| 20260506154604 | 21 | 44 | 0.0 | 6.4 | 0.00 | 0.00 | 0.00 | 70 | 1013.6 |
| 20260506154042 | 21 | 352 | 0.0 | 6.4 | 0.00 | 0.00 | 0.00 | 71 | 1013.5 |
| 20260506152124 | 21 | 34 | 0.0 | 1.6 | 0.00 | 0.00 | 0.00 | 73 | 1013.3 |
| 20260506151125 | 20 | 52 | 0.0 | 6.4 | 0.00 | 0.00 | 0.00 | 74 | 1013.2 |
| 20260506150121 | 20 | 112 | 1.6 | 11.3 | 0.00 | 0.00 | 0.00 | 75 | 1013.2 |
| 20260506145122 | 19 | 243 | 0.0 | 1.6 | 0.00 | 0.00 | 0.00 | 77 | 1013.4 |
| 20260506144118 | 19 | 103 | 0.0 | 1.6 | 0.00 | 0.00 | 0.00 | 76 | 1013.3 |
| 20260506144027 | 18 | 56 | 0.0 | 1.6 | 0.00 | 0.00 | 0.00 | 76 | 1013.7 |
| 20260506142115 | 18 | 22 | 0.0 | 4.8 | 0.00 | 0.00 | 0.00 | 77 | 1013.7 |
| 20260506141116 | 18 | 108 | 0.0 | 3.2 | 0.00 | 0.00 | 0.00 | 77 | 1013.8 |
| 20260506140115 | 18 | 31 | 0.0 | 3.2 | 0.00 | 0.00 | 0.00 | 77 | 1013.7 |
| 20260506135551 | 18 | 243 | 0.0 | 1.6 | 0.00 | 0.00 | 0.00 | 78 | 1013.4 |
| 20260506134114 | 18 | 245 | 0.0 | 1.6 | 0.00 | 0.00 | 0.00 | 77 | 1013.3 |
| 20260506133114 | 18 | 93 | 0.0 | 3.2 | 0.00 | 0.00 | 0.00 | 78 | 1013.4 |
| 20260506132114 | 18 | 197 | 0.0 | 1.6 | 0.00 | 0.00 | 0.00 | 78 | 1013.3 |
| 20260506131113 | 17 | 357 | 0.0 | 1.6 | 0.00 | 0.00 | 0.00 | 78 | 1013.5 |
| 20260506130114 | 17 | 333 | 0.0 | 8.0 | 0.00 | 0.00 | 0.00 | 79 | 1013.5 |
| 20260506125114 | 17 | 101 | 0.0 | 4.8 | 0.00 | 0.00 | 0.00 | 79 | 1013.1 |
| 20260506124112 | 17 | 136 | 0.0 | 3.2 | 0.00 | 0.00 | 0.00 | 79 | 1013.1 |
| 20260506123112 | 17 | 45 | 0.0 | 1.6 | 0.00 | 0.00 | 0.00 | 79 | 1013.3 |
| 20260506122111 | 17 | 71 | 0.0 | 1.6 | 0.00 | 0.00 | 0.00 | 78 | 1013.7 |
| 20260506121109 | 17 | 103 | 0.0 | 1.6 | 0.00 | 0.00 | 0.00 | 78 | 1014.0 |
| 20260506121037 | 17 | 221 | 0.0 | 3.2 | 0.00 | 0.00 | 0.00 | 78 | 1014.1 |
| 20260506115109 | 16 | 330 | 0.0 | 1.6 | 0.00 | 0.00 | 0.00 | 79 | 1014.1 |
| 20260506114110 | 16 | 188 | 0.0 | 0.0 | 0.00 | 0.00 | 0.00 | 79 | 1013.7 |
| 20260506113111 | 16 | 188 | 0.0 | 0.0 | 0.00 | 0.00 | 0.00 | 78 | 1013.7 |
| 20260506113033 | 16 | 86 | 0.0 | 3.2 | 0.00 | 0.00 | 0.00 | 78 | 1013.6 |
| 20260506111110 | 16 | 179 | 0.0 | 1.6 | 0.00 | 0.00 | 0.00 | 78 | 1013.4 |
| 20260506110553 | 16 | 44 | 0.0 | 1.6 | 0.00 | 0.00 | 0.00 | 79 | 1013.4 |
| 20260506105107 | 16 | 335 | 0.0 | 1.6 | 0.00 | 0.00 | 0.00 | 79 | 1013.2 |
| 20260506104111 | 16 | 71 | 0.0 | 6.4 | 0.00 | 0.00 | 0.00 | 78 | 1013.1 |
| 20260506104023 | 16 | 19 | 0.0 | 3.2 | 0.00 | 0.00 | 0.00 | 78 | 1012.7 |
| 20260506102101 | 16 | 116 | 0.0 | 6.4 | 0.00 | 0.00 | 0.00 | 77 | 1012.5 |
| 20260506101101 | 16 | 121 | 0.0 | 4.8 | 0.00 | 0.00 | 0.00 | 77 | 1012.5 |
| 20260506095105 | 16 | 277 | 0.0 | 1.6 | 0.00 | 0.00 | 0.00 | 77 | 1012.7 |
| 20260506094101 | 17 | 247 | 0.0 | 4.8 | 0.00 | 0.00 | 0.00 | 77 | 1012.7 |
| 20260506093101 | 17 | 357 | 0.0 | 4.8 | 0.00 | 0.00 | 0.00 | 78 | 1012.7 |
| 20260506092101 | 17 | 88 | 0.0 | 3.2 | 0.00 | 0.00 | 0.00 | 77 | 1012.9 |
| 20260506091101 | 17 | 2 | 0.0 | 1.6 | 0.00 | 0.00 | 0.00 | 77 | 1012.8 |
| 20260506090055 | 17 | 46 | 0.0 | 6.4 | 0.00 | 0.00 | 0.00 | 77 | 1012.9 |
| 20260506085056 | 17 | 77 | 1.6 | 4.8 | 0.00 | 0.00 | 0.00 | 77 | 1013.1 |
| 20260506084055 | 17 | 96 | 0.0 | 6.4 | 0.00 | 0.00 | 0.00 | 75 | 1013.2 |
| 20260506083055 | 17 | 23 | 1.6 | 6.4 | 0.00 | 0.00 | 0.00 | 75 | 1013.4 |
| 20260506082055 | 17 | 245 | 0.0 | 8.0 | 0.00 | 0.00 | 0.00 | 75 | 1013.5 |
| 20260506081055 | 17 | 13 | 0.0 | 4.8 | 0.00 | 0.00 | 0.00 | 76 | 1013.3 |
| 20260506073054 | 18 | 266 | 0.0 | 3.2 | 0.00 | 0.00 | 0.00 | 75 | 1013.3 |
| 20260506072054 | 18 | 234 | 0.0 | 4.8 | 0.00 | 0.00 | 0.00 | 74 | 1013.4 |
| 20260506071053 | 18 | 141 | 0.0 | 3.2 | 0.00 | 0.00 | 0.00 | 73 | 1013.4 |
| 20260506062053 | 18 | 115 | 1.6 | 8.0 | 0.00 | 0.00 | 0.00 | 71 | 1013.5 |
| 20260506061052 | 18 | 219 | 0.0 | 11.3 | 0.00 | 0.00 | 0.00 | 70 | 1013.5 |
| 20260506051043 | 20 | 130 | 1.6 | 8.0 | 0.00 | 0.00 | 0.00 | 67 | 1013.5 |
| 20260506045043 | 20 | 158 | 0.0 | 4.8 | 0.00 | 0.00 | 0.00 | 66 | 1013.7 |
| 20260506044044 | 20 | 219 | 0.0 | 8.0 | 0.00 | 0.00 | 0.00 | 66 | 1013.6 |
| 20260506043037 | 20 | 101 | 0.0 | 1.6 | 0.00 | 0.00 | 0.00 | 65 | 1013.7 |
| 20260506042040 | 20 | 143 | 0.0 | 8.0 | 0.00 | 0.00 | 0.00 | 64 | 1013.7 |
| 20260506041037 | 20 | 89 | 0.0 | 4.8 | 0.00 | 0.00 | 0.00 | 63 | 1013.6 |
| 20260506040038 | 20 | 196 | 0.0 | 4.8 | 0.00 | 0.00 | 0.00 | 61 | 1013.4 |
| 20260506035036 | 20 | 103 | 0.0 | 6.4 | 0.00 | 0.00 | 0.00 | 60 | 1013.5 |
| 20260506034037 | 20 | 101 | 0.0 | 3.2 | 0.00 | 0.00 | 0.00 | 60 | 1013.5 |
| 20260506033037 | 20 | 89 | 0.0 | 1.6 | 0.00 | 0.00 | 0.00 | 60 | 1013.5 |
| 20260506032037 | 19 | 114 | 0.0 | 0.0 | 0.00 | 0.00 | 0.00 | 60 | 1013.4 |
| 20260506031037 | 20 | 114 | 0.0 | 0.0 | 0.00 | 0.00 | 0.00 | 59 | 1013.3 |
| 20260506030035 | 20 | 114 | 0.0 | 0.0 | 0.00 | 0.00 | 0.00 | 60 | 1013.3 |
| 20260506025034 | 20 | 114 | 0.0 | 0.0 | 0.00 | 0.00 | 0.00 | 60 | 1013.4 |
| 20260506024033 | 20 | 113 | 0.0 | 0.0 | 0.00 | 0.00 | 0.00 | 58 | 1013.5 |
| 20260506023033 | 20 | 114 | 0.0 | 0.0 | 0.00 | 0.00 | 0.00 | 58 | 1013.6 |
| 20260506022033 | 20 | 113 | 0.0 | 0.0 | 0.00 | 0.00 | 0.00 | 57 | 1013.7 |
| 20260506021510 | 20 | 113 | 0.0 | 0.0 | 0.00 | 0.00 | 0.00 | 56 | 1013.7 |
| 20260506020034 | 20 | 114 | 0.0 | 0.0 | 0.00 | 0.00 | 0.00 | 55 | 1013.8 |
| 20260506015032 | 20 | 113 | 0.0 | 0.0 | 0.00 | 0.00 | 0.00 | 55 | 1013.7 |
| 20260506014030 | 20 | 113 | 0.0 | 0.0 | 0.00 | 0.00 | 0.00 | 55 | 1013.8 |
| 20260506013031 | 21 | 114 | 0.0 | 0.0 | 0.00 | 0.00 | 0.00 | 54 | 1013.6 |
| 20260506012030 | 21 | 113 | 0.0 | 0.0 | 0.00 | 0.00 | 0.00 | 52 | 1013.5 |
| 20260506011030 | 21 | 114 | 0.0 | 0.0 | 0.00 | 0.00 | 0.00 | 51 | 1013.5 |
| 20260506010030 | 21 | 113 | 0.0 | 1.6 | 0.00 | 0.00 | 0.00 | 51 | 1013.4 |
| 20260506005030 | 21 | 96 | 0.0 | 0.0 | 0.00 | 0.00 | 0.00 | 50 | 1013.3 |
| 20260506004030 | 21 | 96 | 0.0 | 0.0 | 0.00 | 0.00 | 0.00 | 49 | 1013.2 |
| 20260506003030 | 22 | 96 | 0.0 | 0.0 | 0.00 | 0.00 | 0.00 | 48 | 1013.0 |
| 20260506002032 | 22 | 96 | 0.0 | 0.0 | 0.00 | 0.00 | 0.00 | 48 | 1013.1 |
| 20260506001511 | 22 | 96 | 0.0 | 0.0 | 0.00 | 0.00 | 0.00 | 47 | 1013.1 |
| 20260506000952 | 23 | 96 | 0.0 | 0.0 | 0.00 | 0.00 | 0.00 | 46 | 1013.1 |
| 20260505235028 | 23 | 96 | 0.0 | 4.8 | 0.00 | 0.00 | 0.00 | 45 | 1013.0 |
| 20260505234027 | 23 | 277 | 0.0 | 4.8 | 0.00 | 0.00 | 0.00 | 46 | 1012.9 |
| 20260505233025 | 23 | 251 | 0.0 | 3.2 | 0.00 | 0.00 | 0.00 | 45 | 1012.8 |
| 20260505232025 | 24 | 119 | 0.0 | 3.2 | 0.00 | 0.00 | 0.00 | 44 | 1012.9 |
| 20260505231504 | 24 | 177 | 0.0 | 3.2 | 0.00 | 0.00 | 0.00 | 44 | 1012.7 |
| 20260505230023 | 24 | 82 | 0.0 | 4.8 | 0.00 | 0.00 | 0.00 | 43 | 1012.8 |
| 20260505225022 | 24 | 113 | 0.0 | 6.4 | 0.00 | 0.00 | 0.00 | 44 | 1013.0 |